Aeroporto :
LOGIN :

Iscrizione | Disclaimer

   EN    FR    IT 

 










Sommario :    VFR   VFR Marginale   IFR   IFR Intensivo   IFR Molto Intensivo
Visibilità : 
Base nubi : 
>= 8 km
>= 3000ft
5 / 8 km
1000 / 3000 ft
1500m / 5 km
500 / 1000 ft
800 / 1500m
200 / 500 ft
< 800m
< 200 ft
Simboli :   Temporali  Nebbia  Neve Forte  Precipitazioni Forti  Vento > 20 kt
SIGMETs :   Varie  Temporali  Ghiacco  Turbolenza  Onda orograficha  Ceneri Vulcaniche






- Altitudine del aeroporto : 2945 ft
- Codice IATA : RGS


LEBG - Burgos

ULTIMO METAR :
  • 250500Z AUTO 04005KT 9999 4300NE OVC056 02/02 Q1016

METARs OBSOLETI :
  • 250430Z AUTO 03004KT 9000 OVC058 03/02 Q1016
  • 250400Z AUTO 06003KT 020V120 9999 OVC060 04/02 Q1016
  • 250330Z AUTO 00000KT 9999 OVC060 04/03 Q1017
  • 250300Z AUTO 16004KT 9999 OVC060 04/03 Q1017
  • 250230Z AUTO 15003KT 090V200 9999 OVC060 05/03 Q1017

TAF TAF LEBG
Valido dal 25 a 03 ore il 25 a 12 ore UTC


250200Z 2503/2512 VRB04KT 9999 OVC060
PROB40
TEMPO 2508/2512 3000 RA OVC010



MetMap, La meteo Aeronautica in un colpo d'occhio ! - Copyright ORBIFLY Dicembre 2007 - Disclaimer

ORBIFLY MET'MAP TEAM :

Programmazione e sviluppo : Alexandra Zaïnal
Concezione : Baudouin d'Aumeries
Aiuto per la programmazione : Marc-Olivier Méhu
Supporto tecnico e logistico : Manuel Goepfert
Aiuto per la traduzione : Arnaldo La Scala

Contatto : metmap@orbifly.com




FONTI E CREDITI :

   NOAA